createdAt,value
2017-05-22T00:02:03.358Z,13.7
2017-05-22T00:07:03.065Z,13.5
2017-05-22T00:12:02.787Z,13.4
2017-05-22T00:17:03.555Z,13.4
2017-05-22T00:22:03.364Z,13.3
2017-05-22T00:27:02.963Z,13.2
2017-05-22T00:32:03.734Z,13.2
2017-05-22T00:37:03.145Z,13.1
2017-05-22T00:42:02.863Z,13.1
2017-05-22T00:47:03.515Z,13.1
2017-05-22T00:52:03.499Z,13.0
2017-05-22T00:57:03.300Z,12.8
2017-05-22T01:02:02.959Z,12.6
2017-05-22T01:07:03.228Z,12.5
2017-05-22T01:12:02.923Z,12.5
2017-05-22T01:17:03.717Z,12.4
2017-05-22T01:22:03.278Z,12.3
2017-05-22T01:27:03.092Z,12.1
2017-05-22T01:32:02.809Z,12.1
2017-05-22T01:37:03.191Z,12.1
2017-05-22T01:42:02.980Z,12.0
2017-05-22T01:47:02.936Z,11.9
2017-05-22T01:52:02.657Z,11.9
2017-05-22T01:57:03.343Z,11.7
2017-05-22T02:02:03.295Z,11.6
2017-05-22T02:07:03.006Z,11.5
2017-05-22T02:12:02.842Z,11.4
2017-05-22T02:17:03.663Z,11.4
2017-05-22T02:22:03.209Z,11.3
2017-05-22T02:27:02.727Z,11.3
2017-05-22T02:32:03.458Z,11.2
2017-05-22T02:37:03.409Z,11.2
2017-05-22T02:42:02.645Z,11.1
2017-05-22T02:47:03.984Z,11.1
2017-05-22T02:52:03.235Z,11.0
2017-05-22T02:57:02.693Z,10.9
2017-05-22T03:02:13.101Z,10.9
2017-05-22T03:07:02.778Z,10.7
2017-05-22T03:12:03.353Z,10.7
2017-05-22T03:17:13.216Z,10.6
2017-05-22T03:22:03.562Z,10.6
2017-05-22T03:27:02.996Z,10.6
2017-05-22T03:32:12.788Z,10.5
2017-05-22T03:37:02.741Z,10.5
2017-05-22T03:42:03.263Z,10.4
2017-05-22T03:47:13.851Z,10.4
2017-05-22T03:52:02.825Z,10.4
2017-05-22T03:57:03.226Z,10.3
2017-05-22T04:02:13.596Z,10.3
2017-05-22T04:07:03.151Z,10.3
2017-05-22T04:12:03.535Z,10.3
2017-05-22T04:17:13.361Z,10.4
2017-05-22T04:22:03.450Z,10.3
2017-05-22T04:27:02.892Z,10.3
2017-05-22T04:32:17.788Z,10.5
2017-05-22T04:37:03.348Z,10.5
2017-05-22T04:42:02.710Z,11.2
2017-05-22T04:47:17.611Z,11.2
2017-05-22T04:52:03.364Z,11.5
2017-05-22T04:57:02.720Z,11.9
2017-05-22T05:02:17.233Z,11.9
2017-05-22T05:07:03.175Z,12.4
2017-05-22T05:12:02.833Z,12.4
2017-05-22T05:17:13.053Z,12.9
2017-05-22T05:22:03.006Z,12.9
2017-05-22T05:27:03.459Z,13.2
2017-05-22T05:32:12.981Z,13.5
2017-05-22T05:37:03.006Z,13.7
2017-05-22T05:42:03.463Z,14.3
2017-05-22T05:47:17.396Z,14.6
2017-05-22T05:52:03.152Z,14.9
2017-05-22T05:57:03.568Z,14.8
2017-05-22T06:02:13.118Z,15.1
2017-05-22T06:07:03.362Z,15.3
2017-05-22T06:12:03.067Z,15.5
2017-05-22T06:17:12.874Z,16.1
2017-05-22T06:22:02.769Z,16.0
2017-05-22T06:27:03.235Z,16.4
2017-05-22T06:32:17.928Z,16.7
2017-05-22T06:37:03.141Z,17.0
2017-05-22T06:42:03.438Z,17.3
2017-05-22T06:47:17.464Z,17.9
2017-05-22T06:52:03.302Z,17.9
2017-05-22T06:57:02.630Z,18.6
2017-05-22T07:02:23.120Z,18.6
2017-05-22T07:07:03.601Z,19.0
2017-05-22T07:12:03.513Z,19.6
2017-05-22T07:17:16.965Z,19.6
2017-05-22T07:22:03.475Z,20.3
2017-05-22T07:27:03.648Z,20.2
2017-05-22T07:32:13.329Z,20.6
2017-05-22T07:37:03.495Z,20.9
2017-05-22T07:42:02.937Z,21.1
2017-05-22T07:47:17.664Z,21.7
2017-05-22T07:52:03.016Z,22.0
2017-05-22T07:57:03.386Z,22.0
2017-05-22T08:02:17.170Z,22.3
2017-05-22T08:07:02.945Z,22.3
2017-05-22T08:12:03.283Z,22.5
2017-05-22T08:17:13.969Z,22.6
2017-05-22T08:22:03.587Z,22.7
2017-05-22T08:27:03.239Z,22.9
2017-05-22T08:32:13.668Z,23.5
2017-05-22T08:37:03.046Z,23.4
2017-05-22T08:42:03.437Z,23.7
2017-05-22T08:47:16.641Z,23.9
2017-05-22T08:52:03.033Z,24.1
2017-05-22T08:57:02.792Z,24.3
2017-05-22T09:02:17.282Z,24.7
2017-05-22T09:07:03.426Z,25.0
2017-05-22T09:12:02.856Z,24.9
2017-05-22T09:17:13.976Z,25.2
2017-05-22T09:22:02.791Z,25.2
2017-05-22T09:27:03.034Z,25.3
2017-05-22T09:32:16.787Z,25.8
2017-05-22T09:37:03.431Z,25.7
2017-05-22T09:42:02.758Z,26.4
2017-05-22T09:47:17.457Z,26.3
2017-05-22T09:52:02.723Z,26.6
2017-05-22T09:57:03.235Z,27.0
2017-05-22T10:02:12.858Z,27.0
2017-05-22T10:07:02.804Z,27.4
2017-05-22T10:12:03.416Z,27.7
2017-05-22T10:17:16.838Z,27.6
2017-05-22T10:22:02.720Z,28.7
2017-05-22T10:27:03.214Z,29.2
2017-05-22T10:32:16.566Z,29.2
2017-05-22T10:37:02.888Z,29.5
2017-05-22T10:42:03.420Z,30.3
2017-05-22T10:47:16.409Z,30.4
2017-05-22T10:52:03.476Z,30.8
2017-05-22T10:57:03.298Z,30.6
2017-05-22T11:02:12.929Z,30.6
2017-05-22T11:07:03.201Z,30.8
2017-05-22T11:12:03.671Z,30.8
2017-05-22T11:17:13.888Z,31.1
2017-05-22T11:22:03.391Z,31.2
2017-05-22T11:27:03.685Z,31.2
2017-05-22T11:32:11.337Z,31.0
2017-05-22T11:37:03.094Z,31.0
2017-05-22T11:42:03.535Z,31.3
2017-05-22T11:47:13.874Z,31.5
2017-05-22T11:52:03.112Z,30.6
2017-05-22T11:57:02.684Z,29.9
2017-05-22T12:02:13.378Z,30.3
2017-05-22T12:07:03.027Z,30.9
2017-05-22T12:12:03.172Z,30.9
2017-05-22T12:17:17.282Z,31.3
2017-05-22T12:22:03.120Z,31.7
2017-05-22T12:27:03.523Z,32.1
2017-05-22T12:32:13.227Z,32.5
2017-05-22T12:37:03.556Z,32.5
2017-05-22T12:42:03.149Z,32.5
2017-05-22T12:47:13.698Z,32.6
2017-05-22T12:52:02.867Z,32.7
2017-05-22T12:57:02.882Z,32.0
2017-05-22T13:02:16.465Z,31.9
2017-05-22T13:07:03.570Z,31.7
2017-05-22T13:12:03.560Z,32.1
2017-05-22T13:17:17.272Z,32.1
2017-05-22T13:22:02.820Z,32.7
2017-05-22T13:27:03.321Z,33.2
2017-05-22T13:32:13.829Z,34.3
2017-05-22T13:37:02.935Z,34.3
2017-05-22T13:42:03.301Z,35.5
2017-05-22T13:47:17.329Z,36.0
2017-05-22T13:52:03.337Z,36.0
2017-05-22T13:57:02.850Z,36.6
2017-05-22T14:02:13.556Z,36.6
2017-05-22T14:07:03.327Z,37.2
2017-05-22T14:12:02.963Z,37.2
2017-05-22T14:17:13.823Z,37.3
2017-05-22T14:22:03.068Z,37.1
2017-05-22T14:27:03.481Z,37.4
2017-05-22T14:32:13.110Z,38.4
2017-05-22T14:37:03.000Z,40.1
2017-05-22T14:42:03.434Z,40.0
2017-05-22T14:47:13.215Z,41.9
2017-05-22T14:52:03.526Z,43.7
2017-05-22T14:57:02.917Z,44.6
2017-05-22T15:07:04.051Z,40.4
2017-05-22T15:12:02.703Z,40.4
2017-05-22T15:17:09.979Z,37.2
2017-05-22T15:22:02.874Z,36.0
2017-05-22T15:27:03.309Z,36.0
2017-05-22T15:32:14.078Z,41.9
2017-05-22T15:37:02.637Z,42.7
2017-05-22T15:42:02.821Z,39.6
2017-05-22T15:47:09.326Z,37.9
2017-05-22T15:52:03.380Z,35.9
2017-05-22T15:57:02.757Z,35.8
2017-05-22T16:02:06.028Z,33.4
2017-05-22T16:07:03.609Z,32.6
2017-05-22T16:12:03.577Z,32.5
2017-05-22T16:17:03.874Z,32.1
2017-05-22T16:22:03.598Z,31.7
2017-05-22T16:27:02.942Z,31.2
2017-05-22T16:32:13.796Z,30.9
2017-05-22T16:37:02.674Z,30.8
2017-05-22T16:42:02.957Z,31.5
2017-05-22T16:47:06.360Z,31.5
2017-05-22T16:52:03.214Z,30.7
2017-05-22T16:57:03.413Z,29.3
2017-05-22T17:02:13.344Z,29.2
2017-05-22T17:07:02.796Z,29.3
2017-05-22T17:12:03.328Z,29.3
2017-05-22T17:17:14.333Z,28.5
2017-05-22T17:22:03.486Z,27.6
2017-05-22T17:27:02.918Z,27.6
2017-05-22T17:32:13.794Z,27.4
2017-05-22T17:37:03.142Z,27.1
2017-05-22T17:42:03.460Z,30.9
2017-05-22T17:47:13.558Z,30.9
2017-05-22T17:52:03.309Z,34.6
2017-05-22T17:57:03.571Z,37.0
2017-05-22T18:02:13.443Z,33.5
2017-05-22T18:07:02.900Z,30.5
2017-05-22T18:12:03.455Z,28.4
2017-05-22T18:17:13.441Z,28.3
2017-05-22T18:22:03.597Z,26.7
2017-05-22T18:27:03.006Z,24.5
2017-05-22T18:32:14.059Z,23.9
2017-05-22T18:37:03.387Z,23.8
2017-05-22T18:42:02.725Z,23.2
2017-05-22T18:47:13.558Z,22.8
2017-05-22T18:52:03.514Z,22.7
2017-05-22T18:57:02.897Z,22.2
2017-05-22T19:07:03.051Z,21.4
2017-05-22T19:12:02.749Z,21.2
2017-05-22T19:17:13.815Z,21.1
2017-05-22T19:22:03.557Z,21.0
2017-05-22T19:27:03.090Z,20.9
2017-05-22T19:37:02.881Z,20.4
2017-05-22T19:42:03.219Z,20.2
2017-05-22T19:47:14.456Z,19.8
2017-05-22T19:52:02.685Z,19.6
2017-05-22T19:57:03.030Z,19.5
2017-05-22T20:02:10.787Z,19.4
2017-05-22T20:07:03.110Z,19.1
2017-05-22T20:12:03.603Z,19.1
2017-05-22T20:17:04.234Z,18.9
2017-05-22T20:22:03.539Z,18.9
2017-05-22T20:27:03.602Z,18.7
2017-05-22T20:32:03.292Z,18.5
2017-05-22T20:37:03.617Z,18.3
2017-05-22T20:42:03.460Z,18.3
2017-05-22T20:47:02.889Z,18.2
2017-05-22T20:52:03.123Z,17.9
2017-05-22T20:57:03.386Z,17.8
2017-05-22T21:02:02.975Z,17.7
2017-05-22T21:07:03.613Z,17.6
2017-05-22T21:12:02.756Z,17.5
2017-05-22T21:17:03.224Z,17.4
2017-05-22T21:22:03.359Z,17.4
2017-05-22T21:27:03.676Z,17.2
2017-05-22T21:32:03.071Z,17.1
2017-05-22T21:37:03.254Z,17.0
2017-05-22T21:42:03.530Z,17.0
2017-05-22T21:47:03.241Z,16.8
2017-05-22T21:52:03.283Z,16.8
2017-05-22T21:57:03.566Z,16.7
2017-05-22T22:02:02.956Z,16.7
2017-05-22T22:07:03.476Z,16.5
2017-05-22T22:12:03.540Z,16.4
2017-05-22T22:22:03.615Z,16.0
2017-05-22T22:27:02.818Z,16.0
2017-05-22T22:32:03.362Z,15.9
2017-05-22T22:37:02.995Z,15.8
2017-05-22T22:42:03.372Z,15.7
2017-05-22T22:47:02.817Z,15.6
2017-05-22T22:52:02.794Z,15.6
2017-05-22T22:57:03.176Z,15.5
2017-05-22T23:02:02.852Z,15.3
2017-05-22T23:07:03.303Z,15.4
2017-05-22T23:12:03.040Z,15.3
2017-05-22T23:17:03.726Z,15.2
2017-05-22T23:22:03.437Z,15.0
2017-05-22T23:27:03.152Z,14.9
2017-05-22T23:32:02.821Z,15.0
2017-05-22T23:37:03.495Z,14.9
2017-05-22T23:42:03.275Z,15.0
2017-05-22T23:47:02.913Z,14.9
2017-05-22T23:52:03.564Z,14.9
2017-05-22T23:57:03.211Z,14.9
